Time;durP1;ratioP1;P1;durP2;ratioP2;P2;SDS_P1;SDS_P2;PMS_P1;PMS_P2;Temp;Humidity;BMP_temperature;BMP_pressure;BME280_temperature;BME280_humidity;BME280_pressure;Samples;Min_cycle;Max_cycle;Signal;HPM_P1;HPM_P2
2023/10/26 00:02:16;;;;;;;16.20;7.05;;;;;;;7.19;76.55;98054.47;5011659;28;20065;-52
2023/10/26 00:04:43;;;;;;;19.70;6.03;;;;;;;7.22;75.45;98057.88;5009969;28;20410;-45
2023/10/26 00:07:10;;;;;;;14.02;5.47;;;;;;;7.23;75.99;98049.25;5008997;28;20222;-43
2023/10/26 00:09:36;;;;;;;15.65;5.65;;;;;;;7.24;75.61;98044.06;5008799;28;20054;-45
2023/10/26 00:12:03;;;;;;;13.63;6.30;;;;;;;7.25;75.70;98048.31;5007839;28;20046;-42
2023/10/26 00:14:30;;;;;;;14.68;6.20;;;;;;;7.27;75.26;98045.72;5008536;28;20056;-47
2023/10/26 00:16:57;;;;;;;16.90;5.68;;;;;;;7.30;76.57;98043.09;5008081;28;20085;-48
2023/10/26 00:19:23;;;;;;;13.45;5.55;;;;;;;7.29;76.16;98043.94;5008031;28;20058;-47
2023/10/26 00:21:52;;;;;;;12.20;5.43;;;;;;;7.31;75.58;98037.06;5006516;28;20049;-45
2023/10/26 00:24:19;;;;;;;12.82;5.50;;;;;;;7.31;75.52;98029.31;5007377;28;20050;-51
2023/10/26 00:26:47;;;;;;;16.00;6.22;;;;;;;7.33;76.43;98032.72;5015573;28;20045;-50
2023/10/26 00:29:15;;;;;;;14.25;5.93;;;;;;;7.33;75.02;98041.28;5005656;28;20042;-49
2023/10/26 00:31:42;;;;;;;13.63;6.30;;;;;;;7.36;75.95;98034.38;5018568;28;20072;-50
2023/10/26 00:34:10;;;;;;;15.40;6.57;;;;;;;7.37;76.39;98034.34;5011933;28;20052;-49
2023/10/26 00:36:37;;;;;;;13.35;5.95;;;;;;;7.39;76.64;98035.16;5012283;28;20046;-55
2023/10/26 00:39:05;;;;;;;15.77;6.43;;;;;;;7.41;75.29;98032.53;5006903;28;20105;-44
2023/10/26 00:41:33;;;;;;;18.02;6.47;;;;;;;7.41;75.41;98027.38;5007420;28;20046;-49
2023/10/26 00:44:00;;;;;;;17.25;6.32;;;;;;;7.43;75.85;98030.78;5006884;28;20061;-54
2023/10/26 00:46:27;;;;;;;16.85;6.60;;;;;;;7.45;75.55;98032.44;5015263;28;20049;-55
2023/10/26 00:48:55;;;;;;;17.52;7.10;;;;;;;7.45;75.64;98029.88;5013482;28;20046;-48
2023/10/26 00:51:24;;;;;;;19.15;6.57;;;;;;;7.47;75.61;98022.13;5011379;28;20041;-50
2023/10/26 00:53:52;;;;;;;15.02;6.57;;;;;;;7.48;76.63;98022.94;5008566;28;20136;-47
2023/10/26 00:56:22;;;;;;;17.55;7.22;;;;;;;7.50;75.94;98026.34;5010943;28;20050;-51
2023/10/26 00:58:49;;;;;;;17.63;5.93;;;;;;;7.48;75.72;98018.66;5010734;28;20054;-57
2023/10/26 01:01:17;;;;;;;17.63;7.40;;;;;;;7.50;76.24;98021.19;5009824;28;20046;-51
2023/10/26 01:03:46;;;;;;;18.77;6.60;;;;;;;7.50;76.15;98005.72;4993889;28;20045;-52
2023/10/26 01:06:13;;;;;;;17.95;6.97;;;;;;;7.52;76.17;98014.25;5000917;28;20042;-48
2023/10/26 01:08:40;;;;;;;19.92;7.20;;;;;;;7.52;76.75;98003.94;5010907;28;20503;-46
2023/10/26 01:11:07;;;;;;;21.13;7.47;;;;;;;7.52;76.07;97999.66;5007765;28;20045;-48
2023/10/26 01:13:34;;;;;;;22.85;7.47;;;;;;;7.55;77.32;97993.59;5004587;28;20073;-45
2023/10/26 01:16:04;;;;;;;20.13;7.15;;;;;;;7.55;77.39;97988.44;5013347;28;20137;-46
2023/10/26 01:18:31;;;;;;;22.88;7.07;;;;;;;7.56;76.95;97979.81;5008091;28;20046;-52
2023/10/26 01:20:58;;;;;;;19.45;8.63;;;;;;;7.58;76.59;97975.47;5009959;28;20409;-44
2023/10/26 01:23:25;;;;;;;16.38;7.15;;;;;;;7.61;76.61;97988.31;5012751;28;20418;-48
2023/10/26 01:25:54;;;;;;;18.95;8.30;;;;;;;7.62;77.33;97989.97;5011356;28;20057;-50
2023/10/26 01:28:23;;;;;;;20.40;7.78;;;;;;;7.65;76.65;97973.59;5008395;28;20425;-45
2023/10/26 01:30:50;;;;;;;23.90;7.05;;;;;;;7.65;76.88;97974.47;5008052;28;20156;-45
2023/10/26 01:33:16;;;;;;;17.45;7.32;;;;;;;7.70;77.49;97979.50;5020561;28;20441;-50
2023/10/26 01:35:45;;;;;;;21.63;8.45;;;;;;;7.74;76.69;97977.69;5009463;28;20384;-48
2023/10/26 01:38:13;;;;;;;21.48;7.72;;;;;;;7.77;77.73;97975.03;5009278;28;20046;-45
2023/10/26 01:40:40;;;;;;;19.17;7.20;;;;;;;7.79;76.73;97971.53;5001406;28;20499;-42
2023/10/26 01:43:07;;;;;;;17.42;7.15;;;;;;;7.82;77.51;97966.31;5018869;28;20121;-48
2023/10/26 01:45:34;;;;;;;20.52;8.27;;;;;;;7.84;76.65;97961.13;5007092;28;20418;-46
2023/10/26 01:48:02;;;;;;;19.02;7.05;;;;;;;7.87;76.64;97968.75;5010713;28;20051;-48
2023/10/26 01:50:31;;;;;;;18.35;7.63;;;;;;;7.88;76.92;97970.47;5006667;28;20078;-50
2023/10/26 01:52:57;;;;;;;20.58;8.40;;;;;;;7.90;76.78;97968.69;5005207;28;20045;-48
2023/10/26 01:55:24;;;;;;;18.88;7.35;;;;;;;7.91;76.90;97960.06;5007425;28;20050;-42
2023/10/26 01:57:51;;;;;;;17.83;7.20;;;;;;;7.92;77.28;97961.78;5016340;28;20605;-44
2023/10/26 02:00:18;;;;;;;21.25;6.78;;;;;;;7.93;77.87;97953.16;5015616;28;20053;-50
2023/10/26 02:02:47;;;;;;;20.08;7.40;;;;;;;7.94;77.31;97954.81;4996150;28;20034;-48
2023/10/26 02:05:13;;;;;;;19.50;7.60;;;;;;;7.96;77.82;97937.59;5006646;28;20042;-42
2023/10/26 02:07:40;;;;;;;17.02;6.85;;;;;;;7.98;76.92;97940.13;5009935;28;20053;-48
2023/10/26 02:10:08;;;;;;;20.75;8.40;;;;;;;8.01;77.84;97934.06;5005615;28;20046;-50
2023/10/26 02:12:34;;;;;;;16.95;7.50;;;;;;;8.01;77.50;97936.63;5003699;28;20041;-42
2023/10/26 02:15:01;;;;;;;18.30;6.70;;;;;;;8.02;77.39;97935.75;5006662;28;20049;-45
2023/10/26 02:17:28;;;;;;;16.75;6.80;;;;;;;8.04;77.07;97936.56;5013999;28;20077;-53
2023/10/26 02:19:55;;;;;;;15.70;6.82;;;;;;;8.04;77.20;97933.97;5009300;28;20050;-42
2023/10/26 02:22:22;;;;;;;18.42;7.00;;;;;;;8.06;77.38;97914.13;5008355;28;20042;-52
2023/10/26 02:24:49;;;;;;;20.45;7.47;;;;;;;8.06;76.93;97920.16;5004920;28;20052;-50
2023/10/26 02:27:15;;;;;;;18.63;6.45;;;;;;;8.06;77.60;97911.56;5003342;28;20049;-51
2023/10/26 02:29:42;;;;;;;16.85;6.63;;;;;;;8.06;77.25;97911.56;5010372;28;20065;-46
2023/10/26 02:32:09;;;;;;;19.73;6.95;;;;;;;8.05;77.24;97902.16;5006276;28;20054;-47
2023/10/26 02:34:36;;;;;;;16.10;5.65;;;;;;;8.04;77.37;97892.72;5013569;28;20046;-46
2023/10/26 02:37:02;;;;;;;20.10;6.95;;;;;;;8.03;77.85;97896.16;5008245;28;20049;-46
2023/10/26 02:39:29;;;;;;;17.30;6.40;;;;;;;8.04;77.29;97892.72;5009573;28;20095;-48
2023/10/26 02:41:56;;;;;;;17.52;6.15;;;;;;;8.06;77.36;97880.63;5020579;28;20046;-50
2023/10/26 02:44:22;;;;;;;16.83;6.82;;;;;;;8.07;77.76;97883.16;5007688;28;20042;-51
2023/10/26 02:46:49;;;;;;;19.48;6.85;;;;;;;8.08;78.17;97878.88;5015347;28;20057;-51
2023/10/26 02:49:16;;;;;;;14.27;5.93;;;;;;;8.10;78.05;97877.94;5022240;28;20045;-48
2023/10/26 02:51:42;;;;;;;17.20;6.05;;;;;;;8.12;77.37;97879.59;5009230;28;20041;-46
2023/10/26 02:54:09;;;;;;;17.70;6.53;;;;;;;8.13;78.30;97871.84;5011389;28;20049;-50
2023/10/26 02:56:36;;;;;;;18.55;6.47;;;;;;;8.15;77.54;97869.22;5016265;28;20054;-52
2023/10/26 02:59:03;;;;;;;17.55;6.65;;;;;;;8.15;78.12;97874.38;5015893;28;20132;-50
2023/10/26 03:01:33;;;;;;;21.95;7.00;;;;;;;8.17;78.18;97865.72;4998653;28;20046;-47
2023/10/26 03:04:02;;;;;;;17.73;6.30;;;;;;;8.18;77.77;97863.97;5019662;28;20057;-48
2023/10/26 03:06:35;;;;;;;12.82;5.93;;;;;;;8.17;77.75;97863.13;5011152;28;20084;-49
2023/10/26 03:09:03;;;;;;;19.13;6.55;;;;;;;8.19;78.23;97860.50;5006073;28;20111;-51
2023/10/26 03:11:29;;;;;;;16.25;6.30;;;;;;;8.19;77.59;97851.03;5003484;28;20923;-50
2023/10/26 03:13:56;;;;;;;16.45;6.55;;;;;;;8.21;78.45;97851.84;5010197;28;20045;-51
2023/10/26 03:16:23;;;;;;;22.35;7.32;;;;;;;8.20;78.49;97846.72;5015432;28;20054;-48
2023/10/26 03:18:49;;;;;;;17.88;6.55;;;;;;;8.21;78.12;97832.97;5008707;28;20549;-57
2023/10/26 03:21:18;;;;;;;18.05;6.72;;;;;;;8.22;78.35;97835.50;5004889;28;20049;-49
2023/10/26 03:23:52;;;;;;;17.60;6.97;;;;;;;8.23;78.03;97829.44;5008824;28;20058;-49
2023/10/26 03:26:20;;;;;;;19.02;6.63;;;;;;;8.26;78.00;97825.06;5006030;28;20050;-44
2023/10/26 03:28:50;;;;;;;18.40;7.05;;;;;;;8.26;78.98;97818.19;5021678;28;20052;-51
2023/10/26 03:31:17;;;;;;;18.65;7.40;;;;;;;8.27;79.13;97817.28;5006289;28;20096;-50
2023/10/26 03:33:44;;;;;;;22.50;7.78;;;;;;;8.28;79.09;97811.22;5012140;28;20129;-46
2023/10/26 03:36:14;;;;;;;19.52;7.25;;;;;;;8.30;79.99;97811.19;5015068;28;20103;-48
2023/10/26 03:38:41;;;;;;;24.38;8.32;;;;;;;8.31;79.61;97812.91;4998647;28;20038;-46
2023/10/26 03:41:08;;;;;;;20.40;7.53;;;;;;;8.32;79.61;97812.00;5016468;28;20506;-50
2023/10/26 03:43:35;;;;;;;19.10;6.95;;;;;;;8.35;79.69;97809.34;5010442;28;20045;-51
2023/10/26 03:46:04;;;;;;;22.92;7.95;;;;;;;8.41;79.82;97809.13;5011245;28;20057;-47
2023/10/26 03:48:32;;;;;;;22.98;7.53;;;;;;;8.44;80.29;97805.66;5012866;28;20628;-50
2023/10/26 03:50:59;;;;;;;25.50;7.93;;;;;;;8.46;79.83;97807.28;5005380;28;20046;-49
2023/10/26 03:53:26;;;;;;;24.25;7.80;;;;;;;8.49;80.23;97799.41;5016628;28;20095;-45
2023/10/26 03:55:55;;;;;;;23.75;8.23;;;;;;;8.53;79.99;97796.75;5012168;28;20050;-45
2023/10/26 03:58:22;;;;;;;21.05;7.22;;;;;;;8.58;80.27;97805.25;5020885;28;20049;-51
2023/10/26 04:00:49;;;;;;;21.95;7.95;;;;;;;8.60;79.84;97798.28;5016066;28;20045;-47
2023/10/26 04:03:15;;;;;;;18.48;6.82;;;;;;;8.63;80.09;97803.38;5012961;28;20388;-44
2023/10/26 04:05:42;;;;;;;26.67;7.97;;;;;;;8.66;80.20;97803.28;5016356;28;20049;-46
2023/10/26 04:08:09;;;;;;;19.88;6.85;;;;;;;8.70;79.83;97799.69;5008557;28;20042;-43
2023/10/26 04:10:37;;;;;;;19.95;6.22;;;;;;;8.72;80.09;97787.56;5007738;28;20052;-48
2023/10/26 04:13:04;;;;;;;20.52;8.05;;;;;;;8.77;79.89;97794.31;5008540;28;20053;-50
2023/10/26 04:15:30;;;;;;;19.10;6.78;;;;;;;8.79;79.84;97785.66;5002228;28;20062;-51
2023/10/26 04:17:58;;;;;;;22.42;6.95;;;;;;;8.82;79.69;97797.63;5011513;28;20077;-45
2023/10/26 04:20:25;;;;;;;21.48;7.25;;;;;;;8.83;80.08;97786.41;5011690;28;20533;-51
2023/10/26 04:22:52;;;;;;;23.48;6.78;;;;;;;8.86;80.97;97788.88;5007891;28;20054;-50
2023/10/26 04:25:21;;;;;;;18.83;7.57;;;;;;;8.87;80.75;97786.25;5004004;28;20056;-47
2023/10/26 04:27:47;;;;;;;17.08;6.57;;;;;;;8.89;80.68;97781.06;5006028;28;20052;-55
2023/10/26 04:30:14;;;;;;;21.10;7.10;;;;;;;8.90;80.57;97782.72;5011500;28;20443;-52
2023/10/26 04:32:42;;;;;;;17.27;6.95;;;;;;;8.93;80.98;97777.47;5008305;28;20069;-49
2023/10/26 04:35:09;;;;;;;17.55;7.05;;;;;;;8.94;80.43;97781.75;5015480;28;20134;-48
2023/10/26 04:37:37;;;;;;;18.05;6.72;;;;;;;8.96;80.83;97779.09;5008461;28;20140;-43
2023/10/26 04:40:05;;;;;;;18.48;7.28;;;;;;;8.98;80.76;97769.56;5018311;28;20045;-55
2023/10/26 04:42:32;;;;;;;22.65;7.90;;;;;;;9.00;80.63;97773.81;5003969;28;20089;-42
2023/10/26 04:44:59;;;;;;;20.33;7.32;;;;;;;8.99;81.10;97772.09;5009267;28;20136;-52
2023/10/26 04:47:26;;;;;;;23.27;8.18;;;;;;;9.00;80.92;97760.91;5013679;28;20056;-54
2023/10/26 04:49:52;;;;;;;23.90;7.72;;;;;;;9.00;81.01;97763.47;5009687;28;20080;-50
2023/10/26 04:52:20;;;;;;;24.73;8.35;;;;;;;8.97;81.64;97766.16;5005877;28;20064;-52
2023/10/26 04:54:47;;;;;;;20.38;7.70;;;;;;;9.00;81.30;97760.91;5009816;28;20061;-48
2023/10/26 04:57:14;;;;;;;21.58;7.82;;;;;;;9.01;81.70;97761.72;5014455;28;20091;-47
2023/10/26 04:59:41;;;;;;;23.23;8.40;;;;;;;9.03;81.36;97765.09;5011541;28;20128;-47
2023/10/26 05:02:08;;;;;;;21.75;7.18;;;;;;;9.05;81.03;97763.31;5012711;28;20462;-51
2023/10/26 05:04:34;;;;;;;27.95;7.75;;;;;;;9.05;81.08;97765.06;5007377;28;20053;-46
2023/10/26 05:07:02;;;;;;;27.13;8.35;;;;;;;9.06;81.21;97759.84;5012432;28;20050;-48
2023/10/26 05:09:30;;;;;;;19.05;6.55;;;;;;;9.06;81.00;97761.56;5010019;28;20054;-51
2023/10/26 05:11:57;;;;;;;21.17;7.65;;;;;;;9.04;81.57;97756.47;5011525;28;20045;-47
2023/10/26 05:14:23;;;;;;;23.50;7.70;;;;;;;9.06;81.92;97759.00;5011597;28;20140;-51
2023/10/26 05:16:51;;;;;;;21.38;6.60;;;;;;;9.07;81.71;97756.34;5009965;28;20454;-51
2023/10/26 05:19:17;;;;;;;21.92;7.75;;;;;;;9.09;81.74;97758.91;5011279;28;20045;-50
2023/10/26 05:21:44;;;;;;;21.13;7.90;;;;;;;9.12;81.19;97758.81;5008067;28;20046;-46
2023/10/26 05:24:11;;;;;;;20.67;7.25;;;;;;;9.12;81.27;97759.63;5005442;28;20533;-43
2023/10/26 05:26:37;;;;;;;19.90;7.15;;;;;;;9.12;81.33;97753.63;5000963;28;20053;-46
2023/10/26 05:29:04;;;;;;;17.73;6.13;;;;;;;9.11;81.79;97754.50;4999289;28;20062;-45
2023/10/26 05:31:31;;;;;;;18.30;6.82;;;;;;;9.11;81.75;97746.75;5000769;28;20054;-49
2023/10/26 05:33:57;;;;;;;18.83;7.25;;;;;;;9.12;81.97;97743.31;5002661;28;20046;-48
2023/10/26 05:36:24;;;;;;;23.88;7.70;;;;;;;9.13;82.04;97742.41;4997949;28;20415;-46
2023/10/26 05:38:51;;;;;;;24.40;8.18;;;;;;;9.16;81.82;97739.72;5002120;28;20038;-46
2023/10/26 05:41:17;;;;;;;24.92;8.30;;;;;;;9.19;81.68;97738.75;4999112;28;20056;-48
2023/10/26 05:43:44;;;;;;;22.63;8.23;;;;;;;9.19;82.04;97734.41;5008917;28;20044;-48
2023/10/26 05:46:11;;;;;;;19.23;7.35;;;;;;;9.22;81.68;97733.50;5012176;28;20058;-46
2023/10/26 05:48:38;;;;;;;21.70;7.85;;;;;;;9.23;81.71;97728.25;5012576;28;20049;-55
2023/10/26 05:51:05;;;;;;;24.73;8.00;;;;;;;9.23;81.99;97722.25;5005414;28;20081;-48
2023/10/26 05:53:32;;;;;;;24.52;8.38;;;;;;;9.25;81.45;97726.47;5007277;28;20050;-54
2023/10/26 05:55:59;;;;;;;19.65;7.53;;;;;;;9.29;81.88;97719.44;5000288;28;20538;-45
2023/10/26 05:58:26;;;;;;;21.38;7.53;;;;;;;9.30;81.18;97722.88;5002587;28;20046;-51
2023/10/26 06:00:53;;;;;;;23.45;7.65;;;;;;;9.32;81.85;97718.53;4999701;28;20068;-50
2023/10/26 06:03:19;;;;;;;28.67;7.95;;;;;;;9.33;81.73;97721.06;4998792;28;20697;-52
2023/10/26 06:05:47;;;;;;;29.70;8.20;;;;;;;9.36;81.82;97710.59;5013735;28;20085;-55
2023/10/26 06:08:14;;;;;;;19.77;7.82;;;;;;;9.38;81.61;97710.53;4999801;28;20049;-54
2023/10/26 06:10:41;;;;;;;27.67;8.35;;;;;;;9.39;81.78;97705.31;5006563;28;20053;-45
2023/10/26 06:13:08;;;;;;;25.40;8.15;;;;;;;9.42;81.56;97706.94;4998437;28;20053;-51
2023/10/26 06:15:35;;;;;;;24.13;7.55;;;;;;;9.44;81.70;97702.56;5017901;28;20525;-49
2023/10/26 06:18:02;;;;;;;23.48;8.15;;;;;;;9.46;82.04;97698.19;5016960;28;20417;-49
2023/10/26 06:20:29;;;;;;;26.92;8.07;;;;;;;9.47;81.36;97702.47;5006757;28;20120;-48
2023/10/26 06:22:56;;;;;;;24.70;8.05;;;;;;;9.49;81.88;97703.25;5005432;28;20131;-47
2023/10/26 06:25:25;;;;;;;24.35;8.00;;;;;;;9.50;81.72;97697.16;5004849;28;20654;-58
2023/10/26 06:27:52;;;;;;;24.83;7.88;;;;;;;9.54;81.63;97699.66;5008429;28;20053;-46
2023/10/26 06:30:18;;;;;;;24.77;7.88;;;;;;;9.55;81.35;97698.78;5010553;28;20049;-49
2023/10/26 06:32:45;;;;;;;24.15;7.90;;;;;;;9.56;81.59;97700.44;5010824;28;20136;-50
2023/10/26 06:35:12;;;;;;;26.10;7.75;;;;;;;9.56;82.13;97700.44;5016794;28;20683;-50
2023/10/26 06:37:39;;;;;;;23.38;8.40;;;;;;;9.56;81.40;97695.28;5006021;28;20057;-46
2023/10/26 06:40:07;;;;;;;21.02;7.28;;;;;;;9.58;81.56;97698.63;5012228;28;20058;-45
2023/10/26 06:42:33;;;;;;;27.48;8.18;;;;;;;9.56;81.48;97706.44;4999800;28;20078;-48
2023/10/26 06:45:00;;;;;;;26.73;8.15;;;;;;;9.58;81.61;97693.47;4998171;28;20050;-42
2023/10/26 06:47:27;;;;;;;22.13;7.22;;;;;;;9.59;81.20;97700.34;5008499;28;20061;-51
2023/10/26 06:49:53;;;;;;;25.65;7.97;;;;;;;9.59;81.61;97695.19;5010758;28;20053;-51
2023/10/26 06:52:20;;;;;;;24.60;7.88;;;;;;;9.60;81.33;97697.69;5007907;28;20058;-44
2023/10/26 06:54:48;;;;;;;24.83;7.75;;;;;;;9.60;81.27;97689.09;5000354;28;20048;-49
2023/10/26 06:57:15;;;;;;;23.10;7.32;;;;;;;9.63;81.74;97691.56;5003739;28;20120;-48
2023/10/26 06:59:42;;;;;;;25.83;6.50;;;;;;;9.59;81.71;97685.66;5006188;28;20046;-52
2023/10/26 07:02:10;;;;;;;20.80;7.00;;;;;;;9.62;81.68;97695.03;5007245;28;20046;-49
2023/10/26 07:04:38;;;;;;;26.17;7.50;;;;;;;9.63;81.97;97691.56;5006437;28;20041;-48
2023/10/26 07:07:05;;;;;;;23.50;7.32;;;;;;;9.63;81.60;97689.00;5003532;28;20045;-53
2023/10/26 07:09:31;;;;;;;20.27;7.40;;;;;;;9.64;81.85;97693.25;5003309;28;20049;-48
2023/10/26 07:11:58;;;;;;;23.58;8.32;;;;;;;9.63;81.67;97691.56;5018331;28;20406;-51
2023/10/26 07:14:25;;;;;;;24.88;7.72;;;;;;;9.64;81.27;97691.53;5005037;28;20141;-43
2023/10/26 07:16:52;;;;;;;27.85;8.00;;;;;;;9.67;81.73;97693.16;4995552;28;20063;-49
2023/10/26 07:19:19;;;;;;;23.05;7.30;;;;;;;9.67;81.36;97690.56;5005420;28;20222;-50
2023/10/26 07:21:46;;;;;;;23.58;7.18;;;;;;;9.67;82.49;97687.97;5006964;28;20441;-51
2023/10/26 07:24:12;;;;;;;23.83;7.25;;;;;;;9.69;82.20;97699.09;5004313;28;20038;-41
2023/10/26 07:26:39;;;;;;;21.90;7.22;;;;;;;9.70;81.79;97693.03;5002225;28;20099;-43
2023/10/26 07:29:06;;;;;;;26.55;7.63;;;;;;;9.70;82.05;97695.63;4999292;28;20053;-53
2023/10/26 07:31:33;;;;;;;20.38;7.10;;;;;;;9.72;82.67;97696.41;5002977;28;20065;-54
2023/10/26 07:33:59;;;;;;;19.90;6.35;;;;;;;9.75;81.74;97693.69;5003807;28;20149;-46
2023/10/26 07:36:30;;;;;;;16.55;6.15;;;;;;;9.79;82.48;97693.59;5004989;28;20066;-53
2023/10/26 07:38:59;;;;;;;20.83;6.03;;;;;;;9.81;81.68;97694.38;5002332;28;20054;-51
2023/10/26 07:41:45;;;;;;;24.10;6.63;;;;;;;9.84;81.80;97686.50;5003354;28;20509;-45
2023/10/26 07:44:33;;;;;;;16.20;5.32;;;;;;;9.86;82.02;97690.69;5009753;28;20058;-44
2023/10/26 07:47:00;;;;;;;14.25;5.00;;;;;;;9.89;82.05;97700.94;5021986;28;20045;-53
2023/10/26 07:49:27;;;;;;;14.93;4.93;;;;;;;9.93;82.29;97699.06;5014813;28;20085;-48
2023/10/26 07:51:53;;;;;;;12.45;4.43;;;;;;;9.95;81.75;97702.44;5010253;28;20054;-48
2023/10/26 07:54:20;;;;;;;12.68;5.05;;;;;;;9.98;82.31;97697.16;5004566;28;20125;-53
2023/10/26 07:56:47;;;;;;;12.30;3.85;;;;;;;10.01;81.67;97696.19;5010811;28;20054;-51
2023/10/26 07:59:13;;;;;;;10.23;4.03;;;;;;;10.03;82.42;97697.81;5002254;28;20041;-49
2023/10/26 08:01:40;;;;;;;12.75;3.92;;;;;;;10.07;82.35;97689.94;5007273;28;20052;-54
2023/10/26 08:04:07;;;;;;;7.75;2.72;;;;;;;10.10;82.54;97688.06;5009713;28;20491;-53
2023/10/26 08:06:35;;;;;;;7.47;2.58;;;;;;;10.12;82.71;97682.84;5007794;28;20073;-48
2023/10/26 08:09:02;;;;;;;7.93;2.78;;;;;;;10.16;82.88;97679.22;5006979;28;20077;-52
2023/10/26 08:11:29;;;;;;;8.68;2.47;;;;;;;10.18;83.40;97672.28;5012340;28;20572;-49
2023/10/26 08:13:55;;;;;;;5.90;2.20;;;;;;;10.23;82.84;97675.50;5007630;28;20088;-54
2023/10/26 08:16:23;;;;;;;6.82;2.88;;;;;;;10.29;83.00;97680.44;5011856;28;20398;-49
2023/10/26 08:19:09;;;;;;;5.07;2.25;;;;;;;10.36;83.14;97682.78;5009364;28;20108;-47
2023/10/26 08:21:36;;;;;;;5.25;2.00;;;;;;;10.41;82.88;97678.28;5005348;28;20045;-50
2023/10/26 08:24:03;;;;;;;4.07;1.80;;;;;;;10.46;83.07;97676.38;5009699;28;20046;-43
2023/10/26 08:26:29;;;;;;;3.42;1.48;;;;;;;10.48;83.17;97682.34;5014530;28;20495;-43
2023/10/26 08:28:56;;;;;;;4.45;1.98;;;;;;;10.51;82.91;97679.59;5016695;28;20361;-50
2023/10/26 08:31:41;;;;;;;4.55;1.42;;;;;;;10.53;82.84;97677.81;5018455;28;20059;-44
2023/10/26 08:34:11;;;;;;;5.55;2.03;;;;;;;10.56;82.10;97665.63;5008001;28;20131;-46
2023/10/26 08:36:37;;;;;;;4.40;1.70;;;;;;;10.56;83.19;97660.44;5013541;28;20091;-50
2023/10/26 08:39:10;;;;;;;3.90;1.67;;;;;;;10.59;82.99;97670.69;5016788;28;20080;-45
2023/10/26 08:41:36;;;;;;;4.57;1.85;;;;;;;10.60;83.07;97657.69;5007449;28;20050;-51
2023/10/26 08:44:03;;;;;;;5.07;2.03;;;;;;;10.64;83.31;97658.41;5019673;28;20054;-44
2023/10/26 08:46:31;;;;;;;3.50;1.70;;;;;;;10.66;82.85;97657.44;5004753;28;20054;-52
2023/10/26 08:49:01;;;;;;;4.88;1.63;;;;;;;10.71;82.62;97670.16;5004644;28;20521;-50
2023/10/26 08:51:28;;;;;;;;;;;;;;;10.66;83.95;97666.94;5001569;28;20041;-53
2023/10/26 08:53:56;;;;;;;3.17;1.77;;;;;;;10.76;82.88;97663.06;5003195;28;19926;-54
2023/10/26 08:56:24;;;;;;;4.55;1.60;;;;;;;10.83;83.63;97657.63;4995165;28;20066;-47
2023/10/26 08:58:56;;;;;;;4.68;1.65;;;;;;;10.91;83.86;97665.94;4994989;28;20418;-43
2023/10/26 09:01:24;;;;;;;4.25;1.85;;;;;;;10.97;84.11;97660.47;4999630;28;20050;-50
2023/10/26 09:03:51;;;;;;;5.93;1.75;;;;;;;11.02;83.35;97663.69;4995757;28;20507;-49
2023/10/26 09:06:18;;;;;;;6.10;2.33;;;;;;;11.10;83.44;97663.38;5006503;28;20130;-49
2023/10/26 09:09:00;;;;;;;5.15;2.35;;;;;;;11.12;83.98;97665.91;4994525;28;20061;-46
2023/10/26 09:11:27;;;;;;;4.60;1.83;;;;;;;11.18;83.90;97668.25;4992856;28;20054;-49
2023/10/26 09:14:11;;;;;;;5.88;2.10;;;;;;;11.24;83.09;97661.91;4993180;28;20119;-48
2023/10/26 09:16:38;;;;;;;6.05;2.40;;;;;;;11.27;82.70;97667.81;4993559;28;20530;-46
2023/10/26 09:19:04;;;;;;;7.22;2.13;;;;;;;11.33;83.08;97666.72;5001315;28;20081;-52
2023/10/26 09:21:49;;;;;;;7.57;2.05;;;;;;;11.35;83.39;97669.25;4998167;28;20050;-45
2023/10/26 09:24:19;;;;;;;8.05;2.85;;;;;;;11.42;82.79;97670.66;4998155;28;20480;-44
2023/10/26 09:26:45;;;;;;;;;;;;;;;11.38;82.70;97674.28;4999436;28;20506;-48
2023/10/26 09:29:12;;;;;;;4.80;2.05;;;;;;;11.47;82.63;97663.50;4998889;28;20268;-48
2023/10/26 09:31:54;;;;;;;4.85;2.03;;;;;;;11.53;82.48;97663.25;5005168;28;20507;-50
2023/10/26 09:34:23;;;;;;;5.28;2.40;;;;;;;11.62;82.05;97663.72;4982062;28;20047;-51
2023/10/26 09:37:00;;;;;;;2.53;1.38;;;;;;;11.61;83.11;97660.28;5002500;28;20053;-48
2023/10/26 09:39:30;;;;;;;5.70;2.33;;;;;;;11.67;82.89;97661.75;5000152;28;20038;-55
2023/10/26 09:41:58;;;;;;;5.72;2.72;;;;;;;11.71;83.19;97658.09;4996866;28;20072;-53
2023/10/26 09:44:25;;;;;;;7.65;2.42;;;;;;;11.74;83.22;97660.56;4995425;28;20058;-59
2023/10/26 09:46:52;;;;;;;4.72;1.83;;;;;;;11.80;82.46;97659.44;4996119;28;20057;-47
2023/10/26 09:49:20;;;;;;;4.20;1.98;;;;;;;11.86;82.32;97653.13;5001509;28;20719;-46
2023/10/26 09:51:47;;;;;;;5.40;2.42;;;;;;;11.91;83.44;97652.00;5014556;28;20057;-47
2023/10/26 09:54:15;;;;;;;5.03;2.03;;;;;;;12.01;82.78;97649.81;5016760;28;20045;-49
2023/10/26 09:56:47;;;;;;;6.40;2.42;;;;;;;12.04;82.55;97649.69;5016832;28;20080;-44
2023/10/26 09:59:14;;;;;;;4.93;2.35;;;;;;;12.04;82.76;97652.28;5001321;28;20058;-50
2023/10/26 10:01:41;;;;;;;5.07;2.83;;;;;;;12.05;81.63;97648.75;4999285;28;20420;-49
2023/10/26 10:04:09;;;;;;;4.30;2.17;;;;;;;12.03;82.30;97653.16;5001668;28;20050;-43
2023/10/26 10:06:54;;;;;;;4.63;2.10;;;;;;;12.00;82.33;97658.53;5000347;28;20050;-49
2023/10/26 10:09:23;;;;;;;5.15;2.10;;;;;;;12.04;82.79;97657.47;5001442;28;20483;-50
2023/10/26 10:22:59;;;;;;;4.35;2.97;;;;;;;12.01;81.11;97670.56;5077715;27;20459;-44
2023/10/26 10:28:39;;;;;;;6.30;2.30;;;;;;;12.03;82.29;97668.72;5053085;27;20404;-50
2023/10/26 10:31:06;;;;;;;4.88;2.50;;;;;;;12.10;82.06;97663.28;5045057;28;20061;-48
2023/10/26 10:33:34;;;;;;;5.20;2.42;;;;;;;12.17;81.97;97672.47;5055630;28;20080;-51
2023/10/26 10:38:38;;;;;;;4.68;3.08;;;;;;;12.31;82.23;97669.22;5047636;27;20408;-43
2023/10/26 10:41:08;;;;;;;5.35;2.95;;;;;;;12.35;81.64;97670.75;5018269;28;20062;-49
2023/10/26 10:43:40;;;;;;;7.07;2.33;;;;;;;12.36;81.29;97671.59;5017910;28;20053;-47
2023/10/26 10:46:13;;;;;;;4.18;2.45;;;;;;;12.35;81.63;97675.94;5023766;28;20046;-46
2023/10/26 10:48:58;;;;;;;4.70;2.10;;;;;;;12.34;81.71;97669.91;5016672;28;20042;-46
2023/10/26 10:54:07;;;;;;;5.47;4.03;;;;;;;12.39;81.57;97666.25;5055401;27;20781;-47
2023/10/26 10:56:52;;;;;;;5.00;4.18;;;;;;;12.40;81.78;97673.13;5018667;28;20049;-48
2023/10/26 10:59:29;;;;;;;4.20;3.70;;;;;;;12.39;81.52;97672.28;5029075;28;20156;-53
2023/10/26 11:02:13;;;;;;;7.15;3.80;;;;;;;12.40;80.99;97673.13;5024004;28;20045;-50
2023/10/26 11:04:58;;;;;;;3.60;3.30;;;;;;;12.42;81.27;97666.94;5020792;28;20061;-47
2023/10/26 11:07:41;;;;;;;3.55;3.20;;;;;;;12.45;80.80;97666.81;5019604;28;20057;-55
2023/10/26 11:10:08;;;;;;;3.63;3.10;;;;;;;12.47;82.02;97664.13;5056233;28;20057;-53
2023/10/26 11:12:35;;;;;;;4.88;2.63;;;;;;;12.48;80.63;97665.81;5028729;28;20049;-48
2023/10/26 11:15:03;;;;;;;3.35;2.90;;;;;;;12.49;80.98;97651.91;5028074;28;20121;-46
2023/10/26 11:17:31;;;;;;;3.75;2.88;;;;;;;12.52;81.38;97649.16;5025557;28;20127;-46
2023/10/26 11:19:58;;;;;;;3.53;3.13;;;;;;;12.53;80.46;97648.22;5022867;28;20046;-49
2023/10/26 11:22:24;;;;;;;4.32;3.13;;;;;;;12.58;80.80;97646.28;5023505;28;20038;-44
2023/10/26 11:24:51;;;;;;;3.90;3.50;;;;;;;12.65;81.50;97648.53;5025351;28;20041;-50
2023/10/26 11:27:20;;;;;;;4.15;3.78;;;;;;;12.71;81.75;97651.66;5020164;28;20037;-51
2023/10/26 11:30:05;;;;;;;8.48;3.72;;;;;;;12.75;81.01;97652.38;5022457;28;20071;-54
2023/10/26 11:32:32;;;;;;;2.72;1.48;;;;;;;12.79;80.80;97643.50;5018819;28;20941;-47
2023/10/26 11:37:45;;;;;;;4.43;2.40;;;;;;;12.79;81.15;97638.31;5044430;28;20884;-41
2023/10/26 11:40:14;;;;;;;4.88;2.42;;;;;;;12.78;81.44;97644.44;5023059;28;20053;-49
2023/10/26 11:42:59;;;;;;;5.68;2.30;;;;;;;12.73;80.56;97638.59;5021506;28;20132;-47
2023/10/26 11:45:27;;;;;;;4.43;2.40;;;;;;;12.76;80.52;97629.84;5019177;28;20061;-50
2023/10/26 11:47:56;;;;;;;6.53;3.90;;;;;;;12.78;81.01;97635.78;5022678;28;20388;-54
2023/10/26 11:53:05;;;;;;;7.03;4.07;;;;;;;13.13;80.34;97620.13;5052509;27;20875;-52
2023/10/26 11:55:33;;;;;;;7.13;3.75;;;;;;;13.02;81.28;97628.50;4986137;28;20042;-52
2023/10/26 11:58:01;;;;;;;6.60;4.07;;;;;;;13.03;81.20;97624.97;4981227;28;20124;-46
2023/10/26 12:00:30;;;;;;;5.22;2.08;;;;;;;13.05;81.00;97622.31;4985268;28;20050;-43
2023/10/26 12:02:58;;;;;;;6.15;4.25;;;;;;;13.06;81.06;97624.81;4981482;28;20054;-55
2023/10/26 12:05:26;;;;;;;4.70;3.75;;;;;;;13.06;80.55;97622.22;4982527;28;20665;-56